Tucumcari Municipal

About

Name: Tucumcari Municipal
Identifier:  TCC/KTCC
Owner:  City of Tucumcari
Public/Private:  Public
Local Time:  26. Jan 19:13 MST
Description: Tucumcari Municipal Airport is about six miles east of Tucumcari, New Mexico.
Source: Wikipedia

Location

Tucumcari Municipal

Runways
Identifier Length (m/ft) Surface
03/21 7,102/7,102 Asphalt
08/26 4,599/4,599 Asphalt

Statistics

Flights Per Day:
0 Flights
Distance: 576km (358mi)
Flights Delayed:
0% (0 Flights/Day Delayed)
Average Delay: 34 minutes

Current Weather

 4 C (Humidity: 64%)
  5kt (9km/h / 5mph) from 70°
  16km (10 mi.)
 METAR KTCC 270153Z AUTO 07005KT 10SM CLR 04/M02 A2999 RMK AO2 SLP162 T00441022 $

Claim Compensation

Claim compensation for your flight delay or cancellation
Flight delays happen, but that doesn’t mean you have to accept them. You may be entitled to as much as €600/$700 in compensation if your flight has been delayed, canceled or overbooked within the last three years.

Current Delays

Departures

N/A

Arrivals

N/A

Destinations

Map

Top Destinations

Airport Flights
per week
Seats
per week
  Thermal (TRM) 0 - 0 0

Airlines & Planes

Top Airlines

Airline Flights
per day
Seats
per day
Gama Aviation 0 -

Top Models

model Flights seats
Beech B300 Super King Air 350 0.0/day - 0